createdAt,value
2018-07-21T00:01:53.763Z,20.10
2018-07-21T00:04:23.103Z,20.10
2018-07-21T00:06:52.439Z,20.20
2018-07-21T00:09:21.779Z,20.10
2018-07-21T00:11:51.159Z,20.20
2018-07-21T00:14:20.502Z,20.20
2018-07-21T00:16:49.827Z,20.20
2018-07-21T00:19:19.162Z,20.20
2018-07-21T00:21:48.482Z,20.30
2018-07-21T00:24:17.839Z,20.20
2018-07-21T00:26:48.169Z,20.20
2018-07-21T00:29:18.451Z,20.30
2018-07-21T00:31:47.746Z,20.30
2018-07-21T00:34:17.096Z,20.30
2018-07-21T00:36:46.394Z,20.30
2018-07-21T00:39:16.358Z,20.20
2018-07-21T00:41:46.157Z,20.20
2018-07-21T00:44:15.544Z,20.30
2018-07-21T00:46:45.079Z,20.20
2018-07-21T00:49:14.427Z,20.20
2018-07-21T00:51:43.756Z,20.30
2018-07-21T00:54:13.106Z,20.20
2018-07-21T00:56:42.420Z,20.20
2018-07-21T00:59:11.719Z,20.20
2018-07-21T01:01:41.055Z,20.20
2018-07-21T01:04:10.374Z,20.30
2018-07-21T01:06:39.780Z,20.20
2018-07-21T01:11:39.006Z,20.20
2018-07-21T01:14:08.309Z,20.20
2018-07-21T01:16:38.104Z,20.10
2018-07-21T01:19:08.698Z,20.10
2018-07-21T01:21:38.396Z,20.10
2018-07-21T01:24:08.410Z,20.10
2018-07-21T01:26:37.741Z,20.10
2018-07-21T01:29:07.037Z,20.20
2018-07-21T01:36:34.154Z,20.10
2018-07-21T01:39:04.204Z,20.20
2018-07-21T01:41:33.567Z,20.20
2018-07-21T01:49:00.735Z,20.30
2018-07-21T01:51:30.088Z,20.30
2018-07-21T01:53:59.424Z,20.20
2018-07-21T01:56:28.752Z,20.30
2018-07-21T01:58:58.135Z,20.20
2018-07-21T02:01:27.479Z,20.10
2018-07-21T02:03:56.847Z,20.20
2018-07-21T02:13:52.857Z,20.10
2018-07-21T02:16:22.230Z,20.10
2018-07-21T02:18:51.591Z,20.10
2018-07-21T02:23:49.878Z,20.10
2018-07-21T02:26:19.191Z,20.00
2018-07-21T02:28:48.524Z,20.10
2018-07-21T02:31:17.836Z,20.20
2018-07-21T02:33:47.176Z,20.20
2018-07-21T02:38:45.416Z,20.30
2018-07-21T02:41:14.732Z,20.20
2018-07-21T02:43:44.099Z,20.10
2018-07-21T02:46:13.431Z,20.10
2018-07-21T02:48:42.754Z,20.10
2018-07-21T02:51:12.127Z,20.10
2018-07-21T02:53:42.327Z,20.10
2018-07-21T02:56:11.737Z,20.00
2018-07-21T02:58:41.105Z,20.10
2018-07-21T03:03:39.358Z,20.00
2018-07-21T03:06:08.739Z,20.10
2018-07-21T03:08:38.096Z,20.10
2018-07-21T03:16:05.453Z,20.10
2018-07-21T03:18:35.155Z,20.20
2018-07-21T03:21:04.492Z,20.10
2018-07-21T03:23:33.815Z,20.30
2018-07-21T03:26:03.385Z,20.30
2018-07-21T03:28:32.713Z,20.10
2018-07-21T03:31:02.081Z,20.10
2018-07-21T03:33:31.428Z,20.00
2018-07-21T03:36:00.803Z,20.00
2018-07-21T03:40:59.059Z,19.80
2018-07-21T03:43:28.431Z,19.80
2018-07-21T03:45:57.815Z,19.90
2018-07-21T03:48:27.145Z,20.00
2018-07-21T03:50:56.459Z,19.90
2018-07-21T03:53:25.819Z,20.00
2018-07-21T03:55:55.160Z,20.20
2018-07-21T03:58:24.699Z,19.90
2018-07-21T04:00:54.055Z,19.50
2018-07-21T04:03:23.411Z,19.30
2018-07-21T04:05:52.762Z,19.20
2018-07-21T04:08:22.148Z,19.20
2018-07-21T04:10:51.483Z,19.10
2018-07-21T04:13:20.908Z,19.00
2018-07-21T04:18:19.115Z,18.90
2018-07-21T04:20:48.426Z,18.90
2018-07-21T04:23:18.252Z,18.90
2018-07-21T04:25:47.619Z,18.90
2018-07-21T04:28:16.967Z,19.00
2018-07-21T04:30:46.361Z,19.00
2018-07-21T04:33:15.689Z,19.00
2018-07-21T04:35:45.043Z,19.00
2018-07-21T04:38:14.368Z,19.00
2018-07-21T04:40:43.761Z,19.20
2018-07-21T04:43:13.111Z,19.30
2018-07-21T04:45:42.488Z,19.30
2018-07-21T04:48:11.836Z,19.30
2018-07-21T04:50:41.239Z,19.10
2018-07-21T04:53:10.567Z,19.10
2018-07-21T04:55:39.982Z,19.10
2018-07-21T04:58:09.314Z,19.00
2018-07-21T05:00:39.000Z,19.00
2018-07-21T05:03:08.377Z,19.00
2018-07-21T05:05:37.738Z,19.10
2018-07-21T05:08:07.078Z,19.30
2018-07-21T05:10:36.450Z,19.30
2018-07-21T05:13:06.142Z,19.30
2018-07-21T05:15:35.535Z,19.30
2018-07-21T05:18:04.858Z,19.30
2018-07-21T05:20:34.517Z,19.30
2018-07-21T05:23:04.184Z,19.20
2018-07-21T05:25:33.914Z,19.20
2018-07-21T05:28:03.244Z,19.30
2018-07-21T05:30:32.625Z,19.50
2018-07-21T05:35:30.818Z,19.60
2018-07-21T05:40:29.078Z,19.80
2018-07-21T05:42:58.419Z,19.70
2018-07-21T05:45:27.779Z,19.50
2018-07-21T05:47:57.136Z,19.60
2018-07-21T05:50:26.521Z,19.60
2018-07-21T05:52:55.902Z,19.60
2018-07-21T05:55:25.247Z,19.60
2018-07-21T05:57:54.600Z,19.60
2018-07-21T06:00:23.919Z,19.50
2018-07-21T06:02:53.394Z,19.40
2018-07-21T06:05:22.705Z,19.30
2018-07-21T06:07:52.126Z,19.30
2018-07-21T06:15:19.343Z,19.50
2018-07-21T06:17:49.831Z,19.40
2018-07-21T06:20:19.184Z,19.40
2018-07-21T06:22:48.555Z,19.40
2018-07-21T06:25:17.936Z,19.40
2018-07-21T06:27:47.256Z,19.50
2018-07-21T06:30:16.576Z,19.40
2018-07-21T06:32:45.992Z,19.50
2018-07-21T06:35:15.300Z,19.50
2018-07-21T06:37:45.008Z,19.40
2018-07-21T06:40:14.431Z,19.50
2018-07-21T06:42:43.827Z,19.50
2018-07-21T06:45:13.186Z,19.50
2018-07-21T06:47:42.528Z,19.50
2018-07-21T06:50:11.863Z,19.60
2018-07-21T06:52:41.200Z,19.50
2018-07-21T06:55:12.359Z,19.50
2018-07-21T06:57:43.362Z,19.50
2018-07-21T07:00:12.706Z,19.40
2018-07-21T07:02:42.081Z,19.40
2018-07-21T07:05:11.433Z,19.40
2018-07-21T07:07:40.787Z,19.40
2018-07-21T07:10:10.205Z,19.40
2018-07-21T07:12:39.633Z,19.40
2018-07-21T07:15:09.476Z,19.50
2018-07-21T07:17:39.228Z,19.40
2018-07-21T07:20:09.067Z,19.40
2018-07-21T07:22:38.748Z,19.30
2018-07-21T07:25:08.159Z,19.20
2018-07-21T07:27:37.568Z,19.10
2018-07-21T07:30:07.286Z,19.20
2018-07-21T07:32:36.665Z,19.30
2018-07-21T07:37:35.021Z,19.30
2018-07-21T07:40:04.724Z,19.30
2018-07-21T07:42:34.224Z,19.30
2018-07-21T07:45:03.872Z,19.40
2018-07-21T07:47:33.243Z,19.30
2018-07-21T07:50:03.245Z,19.30
2018-07-21T07:52:32.611Z,19.30
2018-07-21T07:55:01.983Z,19.20
2018-07-21T08:00:00.300Z,19.10
2018-07-21T08:02:29.680Z,19.20
2018-07-21T08:04:59.053Z,19.20
2018-07-21T08:09:57.300Z,19.20
2018-07-21T08:12:26.672Z,19.20
2018-07-21T08:14:56.021Z,19.10
2018-07-21T08:17:25.387Z,19.10
2018-07-21T08:19:54.717Z,19.10
2018-07-21T08:22:24.058Z,19.20
2018-07-21T08:24:53.416Z,19.00
2018-07-21T08:27:22.795Z,19.00
2018-07-21T08:32:21.036Z,18.90
2018-07-21T08:34:50.371Z,18.90
2018-07-21T08:37:19.779Z,18.90
2018-07-21T08:39:49.159Z,18.80
2018-07-21T08:42:18.559Z,18.80
2018-07-21T08:44:47.967Z,18.80
2018-07-21T08:47:17.351Z,18.80
2018-07-21T08:49:46.780Z,18.80
2018-07-21T08:54:45.063Z,18.80
2018-07-21T08:57:14.529Z,18.90
2018-07-21T08:59:43.911Z,18.80
2018-07-21T09:02:13.246Z,18.60
2018-07-21T09:04:42.642Z,18.70
2018-07-21T09:07:11.995Z,18.70
2018-07-21T09:09:41.411Z,18.80
2018-07-21T09:12:10.767Z,18.60
2018-07-21T09:14:40.134Z,18.60
2018-07-21T09:19:38.440Z,18.50
2018-07-21T09:22:07.766Z,18.70
2018-07-21T09:24:37.561Z,18.60
2018-07-21T09:29:35.827Z,18.90
2018-07-21T09:32:05.852Z,18.70
2018-07-21T09:34:35.210Z,18.70
2018-07-21T09:37:04.705Z,18.60
2018-07-21T09:39:34.084Z,18.70
2018-07-21T09:42:03.407Z,18.60
2018-07-21T09:44:32.827Z,18.50
2018-07-21T09:47:02.172Z,18.40
2018-07-21T09:49:31.898Z,18.40
2018-07-21T09:52:01.292Z,18.30
2018-07-21T09:54:30.632Z,18.50
2018-07-21T09:57:00.035Z,18.50
2018-07-21T09:59:29.452Z,18.50
2018-07-21T10:01:58.840Z,18.70
2018-07-21T10:04:28.222Z,18.80
2018-07-21T10:11:55.456Z,18.70
2018-07-21T10:16:54.171Z,18.90
2018-07-21T10:19:23.555Z,18.80
2018-07-21T10:21:52.964Z,18.80
2018-07-21T10:24:27.700Z,18.80
2018-07-21T10:27:02.486Z,18.90
2018-07-21T10:29:31.890Z,19.00
2018-07-21T10:34:30.230Z,19.00
2018-07-21T10:36:59.624Z,18.90
2018-07-21T10:39:28.981Z,18.90
2018-07-21T10:41:58.361Z,18.90
2018-07-21T10:44:27.788Z,18.90
2018-07-21T10:49:26.415Z,19.00
2018-07-21T10:51:55.813Z,19.10
2018-07-21T10:54:25.136Z,19.00
2018-07-21T10:57:08.057Z,19.10
2018-07-21T10:59:37.618Z,19.00
2018-07-21T11:04:35.874Z,19.40
2018-07-21T11:07:06.167Z,19.50
2018-07-21T11:09:35.624Z,19.60
2018-07-21T11:14:34.051Z,20.10
2018-07-21T11:17:03.367Z,20.40
2018-07-21T11:19:32.749Z,20.40
2018-07-21T11:22:02.186Z,20.50
2018-07-21T11:24:32.153Z,20.40
2018-07-21T11:27:01.924Z,20.40
2018-07-21T11:32:00.256Z,20.40
2018-07-21T11:36:58.904Z,20.50
2018-07-21T11:39:28.300Z,20.60
2018-07-21T11:41:57.654Z,20.50
2018-07-21T11:46:55.932Z,20.60
2018-07-21T11:49:25.373Z,20.60
2018-07-21T11:51:54.763Z,20.60
2018-07-21T11:54:24.138Z,20.50
2018-07-21T11:57:02.823Z,20.40
2018-07-21T11:59:33.355Z,20.40
2018-07-21T12:04:32.535Z,20.40
2018-07-21T12:07:02.249Z,20.50
2018-07-21T12:09:32.016Z,20.70
2018-07-21T12:12:01.409Z,20.70
2018-07-21T12:14:30.826Z,20.70
2018-07-21T12:17:00.183Z,20.70
2018-07-21T12:19:29.518Z,20.70
2018-07-21T12:21:58.826Z,20.90
2018-07-21T12:24:28.164Z,21.00
2018-07-21T12:26:57.500Z,21.00
2018-07-21T12:29:26.871Z,21.00
2018-07-21T12:31:56.668Z,21.20
2018-07-21T12:34:26.054Z,21.40
2018-07-21T12:36:55.432Z,21.40
2018-07-21T12:39:24.799Z,21.30
2018-07-21T12:41:54.136Z,21.20
2018-07-21T12:44:23.486Z,21.20
2018-07-21T12:46:53.096Z,21.20
2018-07-21T12:49:22.474Z,21.20
2018-07-21T12:51:51.842Z,21.40
2018-07-21T12:54:21.219Z,21.40
2018-07-21T12:56:50.551Z,21.50
2018-07-21T12:59:19.877Z,21.30
2018-07-21T13:01:49.266Z,21.20
2018-07-21T13:04:18.628Z,21.20
2018-07-21T13:06:48.136Z,21.30
2018-07-21T13:09:17.535Z,21.30
2018-07-21T13:11:47.097Z,21.40
2018-07-21T13:14:16.447Z,21.30
2018-07-21T13:16:46.295Z,21.10
2018-07-21T13:19:15.660Z,21.10
2018-07-21T13:21:45.026Z,21.10
2018-07-21T13:24:14.352Z,21.10
2018-07-21T13:26:43.967Z,21.10
2018-07-21T13:29:13.302Z,21.10
2018-07-21T13:31:42.704Z,21.00
2018-07-21T13:34:12.058Z,21.00
2018-07-21T13:36:41.431Z,21.00
2018-07-21T13:39:12.223Z,21.00
2018-07-21T13:41:41.623Z,21.00
2018-07-21T13:44:11.348Z,20.80
2018-07-21T13:46:40.794Z,20.90
2018-07-21T13:51:39.424Z,20.90
2018-07-21T13:54:08.764Z,20.90
2018-07-21T13:56:38.142Z,20.90
2018-07-21T13:59:07.469Z,21.00
2018-07-21T14:04:05.950Z,20.80
2018-07-21T14:06:37.068Z,20.80
2018-07-21T14:09:07.919Z,20.90
2018-07-21T14:11:37.384Z,20.80
2018-07-21T14:14:07.020Z,20.80
2018-07-21T14:16:36.386Z,20.70
2018-07-21T14:19:05.720Z,20.60
2018-07-21T14:21:35.133Z,20.70
2018-07-21T14:24:04.458Z,20.70
2018-07-21T14:26:33.811Z,20.70
2018-07-21T14:29:03.154Z,20.70
2018-07-21T14:31:32.507Z,20.80
2018-07-21T14:36:30.907Z,20.90
2018-07-21T14:39:00.207Z,21.00
2018-07-21T14:41:29.535Z,21.00
2018-07-21T14:43:58.894Z,21.00
2018-07-21T14:46:28.284Z,21.00
2018-07-21T14:48:57.644Z,21.00
2018-07-21T14:51:27.038Z,20.90
2018-07-21T14:53:56.822Z,20.80
2018-07-21T14:56:26.186Z,20.80
2018-07-21T14:58:55.595Z,20.80
2018-07-21T15:03:53.871Z,20.80
2018-07-21T15:06:23.328Z,20.90
2018-07-21T15:08:52.741Z,20.90
2018-07-21T15:11:22.088Z,20.90
2018-07-21T15:13:51.462Z,20.90
2018-07-21T15:16:20.923Z,20.80
2018-07-21T15:18:50.296Z,20.80
2018-07-21T15:21:19.650Z,20.90
2018-07-21T15:23:48.980Z,21.00
2018-07-21T15:26:18.275Z,20.90
2018-07-21T15:28:47.617Z,20.70
2018-07-21T15:31:16.986Z,20.70
2018-07-21T15:36:15.248Z,20.60
2018-07-21T15:38:44.580Z,20.60
2018-07-21T15:41:14.012Z,20.60
2018-07-21T15:43:43.429Z,20.70
2018-07-21T15:46:13.107Z,20.60
2018-07-21T15:48:42.459Z,20.60
2018-07-21T15:53:40.682Z,20.70
2018-07-21T15:56:10.082Z,20.70
2018-07-21T15:58:39.528Z,20.60
2018-07-21T16:01:11.311Z,20.70
2018-07-21T16:03:41.002Z,20.50
2018-07-21T16:06:11.255Z,20.50
2018-07-21T16:08:40.721Z,20.50
2018-07-21T16:11:10.472Z,20.50
2018-07-21T16:13:39.823Z,20.40
2018-07-21T16:16:09.211Z,20.50
2018-07-21T16:18:38.539Z,20.50
2018-07-21T16:21:07.895Z,20.40
2018-07-21T16:23:37.235Z,20.50
2018-07-21T16:26:06.698Z,20.50
2018-07-21T16:28:36.067Z,20.40
2018-07-21T16:31:05.475Z,20.40
2018-07-21T16:33:34.824Z,20.40
2018-07-21T16:36:04.201Z,20.30
2018-07-21T16:38:33.579Z,20.30
2018-07-21T16:43:31.846Z,20.20
2018-07-21T16:46:01.184Z,20.20
2018-07-21T16:48:30.570Z,20.20
2018-07-21T16:50:59.915Z,20.30
2018-07-21T16:53:29.384Z,20.20
2018-07-21T16:55:59.975Z,20.10
2018-07-21T16:58:29.360Z,20.10
2018-07-21T17:00:58.699Z,20.10
2018-07-21T17:03:28.057Z,20.00
2018-07-21T17:05:57.393Z,20.00
2018-07-21T17:08:26.793Z,20.00
2018-07-21T17:10:56.159Z,20.10
2018-07-21T17:13:25.580Z,20.10
2018-07-21T17:18:23.862Z,20.00
2018-07-21T17:20:53.247Z,20.00
2018-07-21T17:23:22.975Z,20.00
2018-07-21T17:25:52.334Z,20.00
2018-07-21T17:28:21.680Z,20.10
2018-07-21T17:30:51.081Z,20.00
2018-07-21T17:33:20.405Z,20.10
2018-07-21T17:35:49.853Z,20.00
2018-07-21T17:38:19.153Z,20.00
2018-07-21T17:40:48.522Z,20.00
2018-07-21T17:43:18.297Z,19.90
2018-07-21T17:45:48.168Z,19.90
2018-07-21T17:50:46.534Z,19.90
2018-07-21T17:53:15.931Z,19.80
2018-07-21T17:55:45.963Z,19.80
2018-07-21T17:58:15.364Z,19.80
2018-07-21T18:00:44.788Z,19.80
2018-07-21T18:03:14.115Z,19.80
2018-07-21T18:05:43.464Z,19.70
2018-07-21T18:08:12.935Z,19.60
2018-07-21T18:10:42.295Z,19.50
2018-07-21T18:13:11.670Z,19.50
2018-07-21T18:15:41.021Z,19.50
2018-07-21T18:18:10.377Z,19.60
2018-07-21T18:20:39.705Z,19.60
2018-07-21T18:23:09.627Z,19.60
2018-07-21T18:25:38.991Z,19.50
2018-07-21T18:28:08.357Z,19.50
2018-07-21T18:30:37.752Z,19.40
2018-07-21T18:33:07.164Z,19.40
2018-07-21T18:35:36.448Z,19.40
2018-07-21T18:40:34.719Z,19.40
2018-07-21T18:43:04.076Z,19.30
2018-07-21T18:45:33.411Z,19.40
2018-07-21T18:48:02.793Z,19.40
2018-07-21T18:50:32.111Z,19.40
2018-07-21T18:53:01.480Z,19.40
2018-07-21T18:55:30.898Z,19.40
2018-07-21T18:58:00.223Z,19.20
2018-07-21T19:00:29.603Z,19.20
2018-07-21T19:02:58.996Z,19.20
2018-07-21T19:05:29.251Z,19.20
2018-07-21T19:10:28.012Z,19.10
2018-07-21T19:12:57.867Z,19.10
2018-07-21T19:18:02.196Z,19.20
2018-07-21T19:24:07.367Z,18.90
2018-07-21T19:26:42.507Z,19.00
2018-07-21T19:29:12.992Z,18.90
2018-07-21T19:31:48.233Z,18.90
2018-07-21T19:34:17.829Z,18.80
2018-07-21T19:36:47.664Z,18.70
2018-07-21T19:39:17.440Z,18.70
2018-07-21T19:41:52.446Z,18.60
2018-07-21T19:44:22.862Z,18.50
2018-07-21T19:46:53.192Z,18.40
2018-07-21T19:49:23.155Z,18.60
2018-07-21T19:51:52.771Z,18.50
2018-07-21T19:54:22.189Z,18.40
2018-07-21T19:56:51.657Z,18.40
2018-07-21T19:59:20.991Z,18.40
2018-07-21T20:01:50.516Z,18.60
2018-07-21T20:04:20.487Z,18.50
2018-07-21T20:06:50.467Z,18.30
2018-07-21T20:09:19.975Z,18.20
2018-07-21T20:11:49.310Z,18.20
2018-07-21T20:14:18.630Z,18.20
2018-07-21T20:16:48.012Z,18.20
2018-07-21T20:19:17.331Z,18.10
2018-07-21T20:21:46.706Z,18.10
2018-07-21T20:24:16.081Z,18.10
2018-07-21T20:26:45.400Z,18.00
2018-07-21T20:29:14.723Z,18.00
2018-07-21T20:31:44.115Z,18.00
2018-07-21T20:34:13.460Z,18.00
2018-07-21T20:36:43.279Z,18.10
2018-07-21T20:39:12.611Z,18.10
2018-07-21T20:41:42.012Z,18.00
2018-07-21T20:44:12.297Z,18.10
2018-07-21T20:51:39.720Z,18.00
2018-07-21T20:54:09.100Z,18.10
2018-07-21T20:59:07.387Z,18.10
2018-07-21T21:01:38.113Z,18.00
2018-07-21T21:04:07.466Z,18.00
2018-07-21T21:06:36.832Z,18.00
2018-07-21T21:11:36.386Z,18.00
2018-07-21T21:14:05.736Z,18.00
2018-07-21T21:16:35.163Z,17.90
2018-07-21T21:19:04.588Z,17.90
2018-07-21T21:21:34.025Z,17.90
2018-07-21T21:24:03.495Z,17.90
2018-07-21T21:26:33.108Z,17.80
2018-07-21T21:29:03.080Z,17.80
2018-07-21T21:31:32.430Z,17.80
2018-07-21T21:34:01.801Z,17.60
2018-07-21T21:36:31.183Z,17.60
2018-07-21T21:39:00.592Z,17.60
2018-07-21T21:43:58.879Z,17.50
2018-07-21T21:46:28.364Z,17.50
2018-07-21T21:48:57.727Z,17.50
2018-07-21T21:51:27.048Z,17.40
2018-07-21T21:53:56.447Z,17.40
2018-07-21T21:56:26.312Z,17.40
2018-07-21T21:58:56.025Z,17.40
2018-07-21T22:01:25.531Z,17.50
2018-07-21T22:03:55.050Z,17.50
2018-07-21T22:06:24.431Z,17.50
2018-07-21T22:08:53.811Z,17.50
2018-07-21T22:13:52.063Z,17.70
2018-07-21T22:16:21.855Z,17.70
2018-07-21T22:18:51.246Z,18.00
2018-07-21T22:21:20.655Z,18.00
2018-07-21T22:23:50.008Z,17.90
2018-07-21T22:26:19.415Z,17.90
2018-07-21T22:28:48.750Z,17.90
2018-07-21T22:31:18.180Z,18.10
2018-07-21T22:33:47.584Z,18.30
2018-07-21T22:36:17.020Z,18.30
2018-07-21T22:38:46.350Z,18.30
2018-07-21T22:41:15.749Z,18.40
2018-07-21T22:43:45.196Z,18.10
2018-07-21T22:46:14.567Z,18.00
2018-07-21T22:48:43.926Z,17.90
2018-07-21T22:51:13.311Z,17.80
2018-07-21T22:53:42.715Z,17.70
2018-07-21T22:56:12.097Z,17.70
2018-07-21T22:58:41.462Z,17.90
2018-07-21T23:01:10.803Z,18.00
2018-07-21T23:03:40.215Z,18.00
2018-07-21T23:06:09.572Z,18.10
2018-07-21T23:08:39.916Z,18.20
2018-07-21T23:11:09.279Z,18.30
2018-07-21T23:13:38.719Z,18.30
2018-07-21T23:16:08.248Z,18.00
2018-07-21T23:18:37.627Z,17.90
2018-07-21T23:21:06.971Z,17.70
2018-07-21T23:23:36.863Z,17.60
2018-07-21T23:26:06.656Z,17.50
2018-07-21T23:33:33.935Z,17.40
2018-07-21T23:36:03.335Z,17.40
2018-07-21T23:38:32.727Z,17.30
2018-07-21T23:41:02.108Z,17.40
2018-07-21T23:43:31.466Z,17.40
2018-07-21T23:46:00.843Z,17.40
2018-07-21T23:48:30.178Z,17.50
2018-07-21T23:50:59.571Z,17.40
2018-07-21T23:53:28.920Z,17.40
2018-07-21T23:55:58.339Z,17.60
2018-07-21T23:58:27.682Z,17.80
